sensor_id;sensor_type;location;lat;lon;timestamp;pressure;altitude;pressure_sealevel;temperature;humidity
61786;BME280;47692;53.714;11.372;2022-08-11T00:00:50;101977.81;;;17.26;81.01
61786;BME280;47692;53.714;11.372;2022-08-11T00:03:17;101982.19;;;17.27;81.43
61786;BME280;47692;53.714;11.372;2022-08-11T00:05:48;101978.63;;;17.28;81.16
61786;BME280;47692;53.714;11.372;2022-08-11T00:08:25;101975.38;;;17.20;81.59
61786;BME280;47692;53.714;11.372;2022-08-11T00:11:02;101982.47;;;17.18;81.51
61786;BME280;47692;53.714;11.372;2022-08-11T00:13:48;101987.91;;;17.11;81.55
61786;BME280;47692;53.714;11.372;2022-08-11T00:16:18;101979.28;;;17.06;81.86
61786;BME280;47692;53.714;11.372;2022-08-11T00:18:49;101979.56;;;16.97;82.06
61786;BME280;47692;53.714;11.372;2022-08-11T00:21:16;101974.38;;;16.94;82.02
61786;BME280;47692;53.714;11.372;2022-08-11T00:23:50;101981.53;;;16.89;81.85
61786;BME280;47692;53.714;11.372;2022-08-11T00:26:17;101970.25;;;16.84;82.02
61786;BME280;47692;53.714;11.372;2022-08-11T00:28:42;101978.41;;;16.76;82.09
61786;BME280;47692;53.714;11.372;2022-08-11T00:31:19;101983.88;;;16.68;82.43
61786;BME280;47692;53.714;11.372;2022-08-11T00:33:46;101974.38;;;16.62;82.85
61786;BME280;47692;53.714;11.372;2022-08-11T00:36:16;101978.03;;;16.57;82.81
61786;BME280;47692;53.714;11.372;2022-08-11T00:38:44;101979.19;;;16.46;83.40
61786;BME280;47692;53.714;11.372;2022-08-11T00:41:28;101978.41;;;16.43;83.61
61786;BME280;47692;53.714;11.372;2022-08-11T00:52:28;101989.56;;;16.21;85.24
61786;BME280;47692;53.714;11.372;2022-08-11T01:00:20;101981.03;;;16.10;85.22
61786;BME280;47692;53.714;11.372;2022-08-11T01:03:05;101985.50;;;16.08;85.41
61786;BME280;47692;53.714;11.372;2022-08-11T01:11:52;101987.34;;;16.04;86.45
61786;BME280;47692;53.714;11.372;2022-08-11T01:25:37;101992.91;;;15.92;86.34
61786;BME280;47692;53.714;11.372;2022-08-11T01:28:21;101998.25;;;15.89;86.79
61786;BME280;47692;53.714;11.372;2022-08-11T01:30:57;101993.06;;;15.86;86.91
61786;BME280;47692;53.714;11.372;2022-08-11T01:47:34;102004.75;;;15.72;87.80
61786;BME280;47692;53.714;11.372;2022-08-11T01:53:50;102004.06;;;15.64;87.68
61786;BME280;47692;53.714;11.372;2022-08-11T01:56:27;102004.25;;;15.58;88.00
61786;BME280;47692;53.714;11.372;2022-08-11T02:04:37;102000.00;;;15.50;89.29
61786;BME280;47692;53.714;11.372;2022-08-11T02:07:18;101993.09;;;15.45;89.23
61786;BME280;47692;53.714;11.372;2022-08-11T02:12:40;101994.28;;;15.33;88.55
61786;BME280;47692;53.714;11.372;2022-08-11T02:15:17;101999.66;;;15.27;88.72
61786;BME280;47692;53.714;11.372;2022-08-11T02:17:58;101991.00;;;15.22;88.79
61786;BME280;47692;53.714;11.372;2022-08-11T02:20:34;101996.38;;;15.15;88.94
61786;BME280;47692;53.714;11.372;2022-08-11T02:26:17;101993.25;;;14.99;90.90
61786;BME280;47692;53.714;11.372;2022-08-11T02:31:41;101986.28;;;14.97;90.89
61786;BME280;47692;53.714;11.372;2022-08-11T02:34:34;101975.88;;;14.91;88.72
61786;BME280;47692;53.714;11.372;2022-08-11T02:45:28;101971.13;;;14.66;89.49
61786;BME280;47692;53.714;11.372;2022-08-11T02:48:26;101973.00;;;14.58;90.32
61786;BME280;47692;53.714;11.372;2022-08-11T02:56:52;101970.69;;;14.42;92.50
61786;BME280;47692;53.714;11.372;2022-08-11T03:02:30;101968.16;;;14.36;92.09
61786;BME280;47692;53.714;11.372;2022-08-11T03:05:14;101968.22;;;14.33;92.95
61786;BME280;47692;53.714;11.372;2022-08-11T03:08:08;101974.44;;;14.29;93.24
61786;BME280;47692;53.714;11.372;2022-08-11T03:14:13;101976.31;;;14.20;93.92
61786;BME280;47692;53.714;11.372;2022-08-11T03:17:18;101972.94;;;14.14;94.66
61786;BME280;47692;53.714;11.372;2022-08-11T03:19:56;101970.31;;;14.12;94.92
61786;BME280;47692;53.714;11.372;2022-08-11T03:25:24;101966.97;;;14.04;93.86
61786;BME280;47692;53.714;11.372;2022-08-11T03:34:03;101977.56;;;13.99;94.67
61786;BME280;47692;53.714;11.372;2022-08-11T03:37:10;101975.00;;;13.96;95.35
61786;BME280;47692;53.714;11.372;2022-08-11T03:42:57;101977.72;;;13.88;97.82
61786;BME280;47692;53.714;11.372;2022-08-11T03:45:55;101965.53;;;13.87;98.10
61786;BME280;47692;53.714;11.372;2022-08-11T03:51:19;101967.28;;;13.85;98.09
61786;BME280;47692;53.714;11.372;2022-08-11T03:56:58;101962.03;;;13.85;96.28
61786;BME280;47692;53.714;11.372;2022-08-11T04:00:13;101961.16;;;13.85;96.18
61786;BME280;47692;53.714;11.372;2022-08-11T04:11:50;101967.28;;;13.85;96.70
61786;BME280;47692;53.714;11.372;2022-08-11T04:23:47;101957.56;;;13.90;97.04
61786;BME280;47692;53.714;11.372;2022-08-11T04:29:34;101953.97;;;13.98;97.02
61786;BME280;47692;53.714;11.372;2022-08-11T04:35:20;101962.50;;;14.09;96.69
61786;BME280;47692;53.714;11.372;2022-08-11T04:41:31;101965.78;;;14.22;94.81
61786;BME280;47692;53.714;11.372;2022-08-11T04:54:25;101969.41;;;14.62;94.57
61786;BME280;47692;53.714;11.372;2022-08-11T05:00:31;101963.56;;;14.93;96.86
61786;BME280;47692;53.714;11.372;2022-08-11T05:03:38;101960.56;;;15.10;98.32
61786;BME280;47692;53.714;11.372;2022-08-11T05:06:34;101961.00;;;15.29;98.69
61786;BME280;47692;53.714;11.372;2022-08-11T05:09:20;101957.00;;;15.51;98.72
61786;BME280;47692;53.714;11.372;2022-08-11T05:14:44;101966.50;;;15.95;98.28
61786;BME280;47692;53.714;11.372;2022-08-11T05:17:37;101963.25;;;16.18;98.56
61786;BME280;47692;53.714;11.372;2022-08-11T05:21:04;101962.50;;;16.46;98.19
61786;BME280;47692;53.714;11.372;2022-08-11T05:23:55;101976.69;;;16.73;97.32
61786;BME280;47692;53.714;11.372;2022-08-11T05:26:48;101962.88;;;16.96;95.17
61786;BME280;47692;53.714;11.372;2022-08-11T05:29:48;101973.63;;;17.19;94.21
61786;BME280;47692;53.714;11.372;2022-08-11T05:32:42;101975.53;;;17.43;93.12
61786;BME280;47692;53.714;11.372;2022-08-11T05:35:47;101982.94;;;17.59;91.57
61786;BME280;47692;53.714;11.372;2022-08-11T05:38:23;101988.44;;;17.80;90.16
61786;BME280;47692;53.714;11.372;2022-08-11T05:41:10;101980.97;;;17.92;89.66
61786;BME280;47692;53.714;11.372;2022-08-11T05:43:57;101982.09;;;18.12;88.13
61786;BME280;47692;53.714;11.372;2022-08-11T05:46:43;101976.19;;;18.31;86.91
61786;BME280;47692;53.714;11.372;2022-08-11T05:49:30;101982.59;;;18.49;85.61
61786;BME280;47692;53.714;11.372;2022-08-11T05:52:22;101975.81;;;18.65;84.86
61786;BME280;47692;53.714;11.372;2022-08-11T05:55:08;101982.50;;;18.76;83.67
61786;BME280;47692;53.714;11.372;2022-08-11T05:57:58;101982.75;;;18.93;83.14
61786;BME280;47692;53.714;11.372;2022-08-11T06:00:25;101984.94;;;19.05;82.67
61786;BME280;47692;53.714;11.372;2022-08-11T06:02:53;101992.28;;;19.21;81.79
61786;BME280;47692;53.714;11.372;2022-08-11T06:05:20;101993.50;;;19.34;81.59
61786;BME280;47692;53.714;11.372;2022-08-11T06:07:47;101995.66;;;19.47;80.48
61786;BME280;47692;53.714;11.372;2022-08-11T06:10:13;101995.19;;;19.59;79.60
61786;BME280;47692;53.714;11.372;2022-08-11T06:12:40;101990.13;;;19.75;78.67
61786;BME280;47692;53.714;11.372;2022-08-11T06:15:10;101994.16;;;19.85;77.76
61786;BME280;47692;53.714;11.372;2022-08-11T06:17:43;101999.00;;;19.96;78.65
61786;BME280;47692;53.714;11.372;2022-08-11T06:20:12;102001.34;;;20.04;77.84
61786;BME280;47692;53.714;11.372;2022-08-11T06:22:41;101994.63;;;20.16;76.84
61786;BME280;47692;53.714;11.372;2022-08-11T06:25:08;101994.53;;;20.19;75.37
61786;BME280;47692;53.714;11.372;2022-08-11T06:27:36;101999.06;;;20.36;75.47
61786;BME280;47692;53.714;11.372;2022-08-11T06:30:03;101996.22;;;20.61;75.62
61786;BME280;47692;53.714;11.372;2022-08-11T06:32:42;101995.97;;;20.87;73.99
61786;BME280;47692;53.714;11.372;2022-08-11T06:35:29;101992.69;;;21.01;72.56
61786;BME280;47692;53.714;11.372;2022-08-11T06:40:52;101981.84;;;21.05;70.68
61786;BME280;47692;53.714;11.372;2022-08-11T06:43:48;101981.91;;;21.23;70.61
61786;BME280;47692;53.714;11.372;2022-08-11T06:46:17;101985.25;;;21.45;69.27
61786;BME280;47692;53.714;11.372;2022-08-11T06:48:47;101984.59;;;21.59;66.60
61786;BME280;47692;53.714;11.372;2022-08-11T06:51:14;101987.44;;;21.74;66.21
61786;BME280;47692;53.714;11.372;2022-08-11T06:53:53;101984.03;;;21.89;65.80
61786;BME280;47692;53.714;11.372;2022-08-11T06:56:34;101982.81;;;22.13;65.99
61786;BME280;47692;53.714;11.372;2022-08-11T06:59:19;101985.41;;;22.32;65.63
61786;BME280;47692;53.714;11.372;2022-08-11T07:02:16;101978.69;;;22.42;64.20
61786;BME280;47692;53.714;11.372;2022-08-11T07:04:52;101983.97;;;22.59;63.44
61786;BME280;47692;53.714;11.372;2022-08-11T07:13:13;101982.50;;;23.19;61.69
61786;BME280;47692;53.714;11.372;2022-08-11T07:15:59;101980.16;;;23.45;61.22
61786;BME280;47692;53.714;11.372;2022-08-11T07:18:27;101975.50;;;23.65;60.95
61786;BME280;47692;53.714;11.372;2022-08-11T07:21:26;101977.44;;;23.77;58.55
61786;BME280;47692;53.714;11.372;2022-08-11T07:24:15;101978.09;;;23.81;59.28
61786;BME280;47692;53.714;11.372;2022-08-11T07:27:00;101975.59;;;23.94;59.31
61786;BME280;47692;53.714;11.372;2022-08-11T07:29:48;101980.13;;;24.22;59.02
61786;BME280;47692;53.714;11.372;2022-08-11T07:32:24;101972.78;;;24.40;59.29
61786;BME280;47692;53.714;11.372;2022-08-11T07:35:01;101973.97;;;24.65;58.92
61786;BME280;47692;53.714;11.372;2022-08-11T07:37:29;101971.47;;;24.76;58.35
61786;BME280;47692;53.714;11.372;2022-08-11T07:39:57;101975.25;;;25.01;57.45
61786;BME280;47692;53.714;11.372;2022-08-11T07:42:28;101971.22;;;25.08;55.65
61786;BME280;47692;53.714;11.372;2022-08-11T07:44:55;101973.56;;;25.27;55.08
61786;BME280;47692;53.714;11.372;2022-08-11T07:47:40;101970.72;;;25.58;54.19
61786;BME280;47692;53.714;11.372;2022-08-11T07:50:25;101976.31;;;25.80;55.46
61786;BME280;47692;53.714;11.372;2022-08-11T07:53:10;101973.56;;;25.95;54.39
61786;BME280;47692;53.714;11.372;2022-08-11T07:55:37;101973.50;;;26.09;52.52
61786;BME280;47692;53.714;11.372;2022-08-11T07:58:03;101970.41;;;26.16;51.72
61786;BME280;47692;53.714;11.372;2022-08-11T08:00:51;101975.97;;;26.12;51.47
61786;BME280;47692;53.714;11.372;2022-08-11T08:03:37;101975.97;;;26.38;51.64
61786;BME280;47692;53.714;11.372;2022-08-11T08:06:23;101970.94;;;26.59;50.31
61786;BME280;47692;53.714;11.372;2022-08-11T08:09:08;101977.44;;;26.68;49.09
61786;BME280;47692;53.714;11.372;2022-08-11T08:11:52;101973.91;;;26.81;48.44
61786;BME280;47692;53.714;11.372;2022-08-11T08:14:36;101969.63;;;26.78;47.42
61786;BME280;47692;53.714;11.372;2022-08-11T08:17:21;101975.09;;;26.76;46.98
61786;BME280;47692;53.714;11.372;2022-08-11T08:20:09;101973.75;;;26.95;47.25
61786;BME280;47692;53.714;11.372;2022-08-11T08:22:35;101976.16;;;26.87;47.69
61786;BME280;47692;53.714;11.372;2022-08-11T08:25:02;101972.91;;;26.82;47.57
61786;BME280;47692;53.714;11.372;2022-08-11T08:27:28;101973.13;;;26.91;46.84
61786;BME280;47692;53.714;11.372;2022-08-11T08:29:54;101974.44;;;27.10;46.59
61786;BME280;47692;53.714;11.372;2022-08-11T08:32:41;101981.25;;;27.27;46.50
61786;BME280;47692;53.714;11.372;2022-08-11T08:35:10;101969.78;;;27.25;45.26
61786;BME280;47692;53.714;11.372;2022-08-11T08:37:36;101972.38;;;27.27;45.02
61786;BME280;47692;53.714;11.372;2022-08-11T08:40:01;101979.59;;;27.37;45.43
61786;BME280;47692;53.714;11.372;2022-08-11T08:42:31;101975.34;;;27.59;46.21
61786;BME280;47692;53.714;11.372;2022-08-11T08:45:03;101974.47;;;27.58;45.29
61786;BME280;47692;53.714;11.372;2022-08-11T08:47:30;101973.81;;;27.44;45.35
61786;BME280;47692;53.714;11.372;2022-08-11T08:50:03;101976.97;;;27.73;45.62
61786;BME280;47692;53.714;11.372;2022-08-11T08:52:36;101981.75;;;27.81;44.84
61786;BME280;47692;53.714;11.372;2022-08-11T08:55:06;101975.84;;;27.64;45.10
61786;BME280;47692;53.714;11.372;2022-08-11T08:57:35;101971.25;;;27.42;46.14
61786;BME280;47692;53.714;11.372;2022-08-11T09:00:02;101975.13;;;27.73;45.91
61786;BME280;47692;53.714;11.372;2022-08-11T09:02:29;101971.78;;;27.94;45.12
61786;BME280;47692;53.714;11.372;2022-08-11T09:04:55;101972.31;;;28.11;46.04
61786;BME280;47692;53.714;11.372;2022-08-11T09:07:22;101969.69;;;28.45;44.99
61786;BME280;47692;53.714;11.372;2022-08-11T09:09:52;101965.06;;;28.69;44.78
61786;BME280;47692;53.714;11.372;2022-08-11T09:12:19;101965.75;;;28.60;45.09
61786;BME280;47692;53.714;11.372;2022-08-11T09:14:49;101970.53;;;28.68;44.38
61786;BME280;47692;53.714;11.372;2022-08-11T09:17:34;101967.59;;;28.60;43.81
61786;BME280;47692;53.714;11.372;2022-08-11T09:20:06;101966.75;;;28.48;44.57
61786;BME280;47692;53.714;11.372;2022-08-11T09:22:35;101956.72;;;28.61;44.71
61786;BME280;47692;53.714;11.372;2022-08-11T09:25:21;101961.38;;;28.93;44.00
61786;BME280;47692;53.714;11.372;2022-08-11T09:28:13;101954.47;;;29.00;43.59
61786;BME280;47692;53.714;11.372;2022-08-11T09:30:44;101949.69;;;29.04;43.64
61786;BME280;47692;53.714;11.372;2022-08-11T09:33:13;101949.81;;;29.14;43.58
61786;BME280;47692;53.714;11.372;2022-08-11T09:35:40;101948.13;;;29.01;43.83
61786;BME280;47692;53.714;11.372;2022-08-11T09:38:13;101938.84;;;28.94;43.57
61786;BME280;47692;53.714;11.372;2022-08-11T09:40:57;101943.22;;;29.07;43.95
61786;BME280;47692;53.714;11.372;2022-08-11T09:43:24;101939.41;;;29.21;43.51
61786;BME280;47692;53.714;11.372;2022-08-11T09:46:09;101939.25;;;29.33;42.62
61786;BME280;47692;53.714;11.372;2022-08-11T09:48:43;101935.00;;;29.31;43.55
61786;BME280;47692;53.714;11.372;2022-08-11T09:51:10;101932.44;;;29.29;43.56
61786;BME280;47692;53.714;11.372;2022-08-11T09:53:39;101927.72;;;29.43;44.04
61786;BME280;47692;53.714;11.372;2022-08-11T09:56:09;101931.13;;;29.45;44.41
61786;BME280;47692;53.714;11.372;2022-08-11T09:58:54;101929.22;;;29.03;42.45
61786;BME280;47692;53.714;11.372;2022-08-11T10:01:22;101923.94;;;29.01;43.68
61786;BME280;47692;53.714;11.372;2022-08-11T10:04:03;101927.75;;;29.31;42.73
61786;BME280;47692;53.714;11.372;2022-08-11T10:06:30;101925.06;;;29.31;41.96
61786;BME280;47692;53.714;11.372;2022-08-11T10:09:17;101925.13;;;29.09;43.40
61786;BME280;47692;53.714;11.372;2022-08-11T10:11:44;101925.75;;;29.12;43.63
61786;BME280;47692;53.714;11.372;2022-08-11T10:14:10;101926.25;;;29.06;43.47
61786;BME280;47692;53.714;11.372;2022-08-11T10:16:54;101917.75;;;29.22;43.36
61786;BME280;47692;53.714;11.372;2022-08-11T10:19:20;101924.19;;;29.42;42.84
61786;BME280;47692;53.714;11.372;2022-08-11T10:21:50;101920.53;;;29.64;42.99
61786;BME280;47692;53.714;11.372;2022-08-11T10:24:34;101911.84;;;29.82;42.27
61786;BME280;47692;53.714;11.372;2022-08-11T10:27:19;101906.59;;;29.80;41.63
61786;BME280;47692;53.714;11.372;2022-08-11T10:29:45;101903.38;;;29.87;40.68
61786;BME280;47692;53.714;11.372;2022-08-11T10:32:31;101904.44;;;29.74;41.51
61786;BME280;47692;53.714;11.372;2022-08-11T10:35:17;101895.69;;;29.82;42.22
61786;BME280;47692;53.714;11.372;2022-08-11T10:37:45;101894.81;;;29.93;41.45
61786;BME280;47692;53.714;11.372;2022-08-11T10:40:16;101893.94;;;30.23;42.28
61786;BME280;47692;53.714;11.372;2022-08-11T10:42:42;101889.63;;;30.11;41.65
61786;BME280;47692;53.714;11.372;2022-08-11T10:45:28;101886.81;;;29.60;42.83
61786;BME280;47692;53.714;11.372;2022-08-11T10:48:13;101883.75;;;29.54;42.81
61786;BME280;47692;53.714;11.372;2022-08-11T10:50:44;101876.22;;;29.47;42.62
61786;BME280;47692;53.714;11.372;2022-08-11T10:53:29;101883.84;;;29.63;42.31
61786;BME280;47692;53.714;11.372;2022-08-11T10:56:12;101879.63;;;29.92;41.90
61786;BME280;47692;53.714;11.372;2022-08-11T10:58:57;101883.16;;;30.23;41.38
61786;BME280;47692;53.714;11.372;2022-08-11T11:01:30;101875.34;;;30.51;39.77
61786;BME280;47692;53.714;11.372;2022-08-11T11:04:05;101874.25;;;30.83;39.26
61786;BME280;47692;53.714;11.372;2022-08-11T11:09:07;101869.16;;;31.19;37.19
61786;BME280;47692;53.714;11.372;2022-08-11T11:11:38;101876.84;;;31.34;37.87
61786;BME280;47692;53.714;11.372;2022-08-11T11:14:31;101872.31;;;31.24;37.89
61786;BME280;47692;53.714;11.372;2022-08-11T11:17:27;101866.41;;;31.58;36.04
61786;BME280;47692;53.714;11.372;2022-08-11T11:20:15;101867.47;;;30.99;38.54
61786;BME280;47692;53.714;11.372;2022-08-11T11:22:42;101869.47;;;31.16;38.34
61786;BME280;47692;53.714;11.372;2022-08-11T11:25:35;101866.50;;;31.09;38.46
61786;BME280;47692;53.714;11.372;2022-08-11T11:28:27;101868.72;;;30.94;37.50
61786;BME280;47692;53.714;11.372;2022-08-11T11:36:14;101860.03;;;31.59;36.43
61786;BME280;47692;53.714;11.372;2022-08-11T11:38:45;101851.00;;;31.21;36.49
61786;BME280;47692;53.714;11.372;2022-08-11T11:41:10;101856.06;;;31.54;37.63
61786;BME280;47692;53.714;11.372;2022-08-11T11:43:49;101861.63;;;32.00;36.78
61786;BME280;47692;53.714;11.372;2022-08-11T11:46:15;101848.78;;;32.21;35.50
61786;BME280;47692;53.714;11.372;2022-08-11T11:48:42;101848.13;;;32.00;35.61
61786;BME280;47692;53.714;11.372;2022-08-11T11:51:07;101851.22;;;32.05;36.39
61786;BME280;47692;53.714;11.372;2022-08-11T11:53:35;101854.19;;;32.12;36.21
61786;BME280;47692;53.714;11.372;2022-08-11T11:56:01;101843.53;;;31.63;34.96
61786;BME280;47692;53.714;11.372;2022-08-11T11:58:27;101849.38;;;31.68;36.19
61786;BME280;47692;53.714;11.372;2022-08-11T12:01:12;101842.59;;;31.44;35.51
61786;BME280;47692;53.714;11.372;2022-08-11T12:03:44;101846.34;;;31.14;35.23
61786;BME280;47692;53.714;11.372;2022-08-11T12:06:11;101843.31;;;31.46;33.36
61786;BME280;47692;53.714;11.372;2022-08-11T12:08:38;101838.41;;;31.79;33.69
61786;BME280;47692;53.714;11.372;2022-08-11T12:11:11;101834.94;;;31.97;35.50
61786;BME280;47692;53.714;11.372;2022-08-11T12:13:58;101845.56;;;31.98;34.94
61786;BME280;47692;53.714;11.372;2022-08-11T12:16:24;101839.00;;;31.73;34.64
61786;BME280;47692;53.714;11.372;2022-08-11T12:18:53;101843.63;;;31.14;35.28
61786;BME280;47692;53.714;11.372;2022-08-11T12:21:21;101832.56;;;30.77;36.08
61786;BME280;47692;53.714;11.372;2022-08-11T12:23:48;101831.38;;;31.39;35.60
61786;BME280;47692;53.714;11.372;2022-08-11T12:26:33;101827.41;;;31.43;35.64
61786;BME280;47692;53.714;11.372;2022-08-11T12:29:18;101823.44;;;31.37;35.55
61786;BME280;47692;53.714;11.372;2022-08-11T12:31:45;101828.81;;;31.67;34.91
61786;BME280;47692;53.714;11.372;2022-08-11T12:34:13;101818.72;;;31.97;32.52
61786;BME280;47692;53.714;11.372;2022-08-11T12:36:58;101824.00;;;32.16;33.10
61786;BME280;47692;53.714;11.372;2022-08-11T12:39:30;101823.44;;;32.22;33.25
61786;BME280;47692;53.714;11.372;2022-08-11T12:42:17;101814.72;;;32.01;32.25
61786;BME280;47692;53.714;11.372;2022-08-11T12:45:02;101817.63;;;31.89;33.85
61786;BME280;47692;53.714;11.372;2022-08-11T12:47:51;101813.41;;;32.05;32.64
61786;BME280;47692;53.714;11.372;2022-08-11T12:50:35;101816.75;;;32.27;34.18
61786;BME280;47692;53.714;11.372;2022-08-11T12:53:26;101819.88;;;32.68;34.30
61786;BME280;47692;53.714;11.372;2022-08-11T12:55:54;101807.50;;;33.01;35.00
61786;BME280;47692;53.714;11.372;2022-08-11T12:58:41;101810.97;;;33.30;35.66
61786;BME280;47692;53.714;11.372;2022-08-11T13:01:07;101789.69;;;33.35;34.53
61786;BME280;47692;53.714;11.372;2022-08-11T13:03:53;101797.66;;;33.18;32.43
61786;BME280;47692;53.714;11.372;2022-08-11T13:06:38;101789.31;;;33.30;34.40
61786;BME280;47692;53.714;11.372;2022-08-11T13:09:06;101792.41;;;33.17;34.82
61786;BME280;47692;53.714;11.372;2022-08-11T13:11:35;101791.63;;;33.25;35.07
61786;BME280;47692;53.714;11.372;2022-08-11T13:14:21;101787.63;;;33.29;35.13
61786;BME280;47692;53.714;11.372;2022-08-11T13:16:47;101780.88;;;32.89;36.22
61786;BME280;47692;53.714;11.372;2022-08-11T13:19:32;101777.84;;;32.92;35.29
61786;BME280;47692;53.714;11.372;2022-08-11T13:21:58;101783.09;;;32.93;35.98
61786;BME280;47692;53.714;11.372;2022-08-11T13:24:25;101784.72;;;32.68;35.83
61786;BME280;47692;53.714;11.372;2022-08-11T13:26:52;101783.28;;;32.74;35.64
61786;BME280;47692;53.714;11.372;2022-08-11T13:29:24;101778.50;;;33.30;35.26
61786;BME280;47692;53.714;11.372;2022-08-11T13:31:51;101779.56;;;33.37;35.26
61786;BME280;47692;53.714;11.372;2022-08-11T13:34:19;101773.97;;;33.12;35.24
61786;BME280;47692;53.714;11.372;2022-08-11T13:36:47;101764.16;;;33.38;35.33
61786;BME280;47692;53.714;11.372;2022-08-11T13:39:13;101756.06;;;33.19;35.36
61786;BME280;47692;53.714;11.372;2022-08-11T13:41:40;101762.28;;;33.12;35.94
61786;BME280;47692;53.714;11.372;2022-08-11T13:44:10;101763.81;;;33.14;35.22
61786;BME280;47692;53.714;11.372;2022-08-11T13:46:38;101757.03;;;33.10;36.28
61786;BME280;47692;53.714;11.372;2022-08-11T13:49:05;101749.47;;;32.96;35.95
61786;BME280;47692;53.714;11.372;2022-08-11T13:51:33;101760.00;;;32.99;36.50
61786;BME280;47692;53.714;11.372;2022-08-11T13:54:05;101759.69;;;33.28;36.28
61786;BME280;47692;53.714;11.372;2022-08-11T13:56:32;101756.28;;;33.26;35.68
61786;BME280;47692;53.714;11.372;2022-08-11T13:59:00;101753.84;;;33.15;35.94
61786;BME280;47692;53.714;11.372;2022-08-11T14:01:30;101750.56;;;33.03;36.34
61786;BME280;47692;53.714;11.372;2022-08-11T14:04:07;101748.97;;;32.74;36.76
61786;BME280;47692;53.714;11.372;2022-08-11T14:06:34;101754.28;;;32.66;36.86
61786;BME280;47692;53.714;11.372;2022-08-11T14:09:02;101737.56;;;32.80;36.39
61786;BME280;47692;53.714;11.372;2022-08-11T14:11:29;101738.56;;;32.79;37.02
61786;BME280;47692;53.714;11.372;2022-08-11T14:14:19;101733.75;;;32.91;36.68
61786;BME280;47692;53.714;11.372;2022-08-11T14:16:47;101738.31;;;32.73;36.42
61786;BME280;47692;53.714;11.372;2022-08-11T14:19:15;101727.44;;;32.82;36.84
61786;BME280;47692;53.714;11.372;2022-08-11T14:21:43;101729.50;;;32.70;36.41
61786;BME280;47692;53.714;11.372;2022-08-11T14:24:28;101724.03;;;32.80;37.44
61786;BME280;47692;53.714;11.372;2022-08-11T14:26:54;101728.34;;;32.73;36.86
61786;BME280;47692;53.714;11.372;2022-08-11T14:29:21;101734.91;;;32.70;37.20
61786;BME280;47692;53.714;11.372;2022-08-11T14:31:58;101729.09;;;32.83;37.10
61786;BME280;47692;53.714;11.372;2022-08-11T14:34:27;101726.94;;;32.87;37.37
61786;BME280;47692;53.714;11.372;2022-08-11T14:37:00;101718.00;;;32.86;36.51
61786;BME280;47692;53.714;11.372;2022-08-11T14:39:28;101723.41;;;32.86;37.21
61786;BME280;47692;53.714;11.372;2022-08-11T14:41:58;101715.59;;;32.83;36.97
61786;BME280;47692;53.714;11.372;2022-08-11T14:44:48;101723.09;;;32.71;37.09
61786;BME280;47692;53.714;11.372;2022-08-11T14:47:36;101720.78;;;32.77;37.50
61786;BME280;47692;53.714;11.372;2022-08-11T14:50:05;101723.63;;;32.57;38.24
61786;BME280;47692;53.714;11.372;2022-08-11T14:52:32;101712.66;;;32.59;37.78
61786;BME280;47692;53.714;11.372;2022-08-11T14:54:59;101720.97;;;32.39;38.10
61786;BME280;47692;53.714;11.372;2022-08-11T14:57:44;101715.38;;;32.22;38.59
61786;BME280;47692;53.714;11.372;2022-08-11T15:00:13;101708.91;;;32.15;38.02
61786;BME280;47692;53.714;11.372;2022-08-11T15:02:44;101717.34;;;31.84;38.84
61786;BME280;47692;53.714;11.372;2022-08-11T15:05:29;101716.59;;;31.64;38.89
61786;BME280;47692;53.714;11.372;2022-08-11T15:07:56;101708.25;;;31.85;39.59
61786;BME280;47692;53.714;11.372;2022-08-11T15:10:23;101714.00;;;31.63;39.20
61786;BME280;47692;53.714;11.372;2022-08-11T15:12:48;101709.91;;;31.86;39.32
61786;BME280;47692;53.714;11.372;2022-08-11T15:15:15;101701.47;;;31.71;39.02
61786;BME280;47692;53.714;11.372;2022-08-11T15:18:04;101698.38;;;31.66;39.58
61786;BME280;47692;53.714;11.372;2022-08-11T15:20:30;101694.56;;;31.31;39.79
61786;BME280;47692;53.714;11.372;2022-08-11T15:23:15;101703.03;;;31.36;39.90
61786;BME280;47692;53.714;11.372;2022-08-11T15:26:49;101698.44;;;31.09;40.25
61786;BME280;47692;53.714;11.372;2022-08-11T15:29:29;101697.78;;;30.87;40.56
61786;BME280;47692;53.714;11.372;2022-08-11T15:32:15;101692.16;;;30.51;41.40
61786;BME280;47692;53.714;11.372;2022-08-11T15:34:59;101686.44;;;30.44;41.16
61786;BME280;47692;53.714;11.372;2022-08-11T15:37:45;101698.63;;;30.19;41.69
61786;BME280;47692;53.714;11.372;2022-08-11T15:40:30;101687.00;;;30.28;41.42
61786;BME280;47692;53.714;11.372;2022-08-11T15:43:37;101686.13;;;29.98;42.44
61786;BME280;47692;53.714;11.372;2022-08-11T15:46:44;101682.38;;;29.80;42.66
61786;BME280;47692;53.714;11.372;2022-08-11T15:52:17;101676.22;;;29.99;43.25
61786;BME280;47692;53.714;11.372;2022-08-11T15:54:42;101674.78;;;30.05;43.35
61786;BME280;47692;53.714;11.372;2022-08-11T15:57:09;101672.19;;;29.83;43.52
61786;BME280;47692;53.714;11.372;2022-08-11T15:59:56;101674.28;;;29.80;43.86
61786;BME280;47692;53.714;11.372;2022-08-11T16:02:43;101673.81;;;29.55;44.46
61786;BME280;47692;53.714;11.372;2022-08-11T16:05:22;101673.84;;;29.65;44.54
61786;BME280;47692;53.714;11.372;2022-08-11T16:07:50;101672.38;;;29.51;44.86
61786;BME280;47692;53.714;11.372;2022-08-11T16:10:19;101668.09;;;29.39;45.06
61786;BME280;47692;53.714;11.372;2022-08-11T16:12:51;101666.00;;;29.21;45.58
61786;BME280;47692;53.714;11.372;2022-08-11T16:15:32;101669.13;;;28.74;46.56